Adrian, Georgia
Current Conditions -  °F | °C
As of 1:15 PM on Monday 26 Jan 2015 (Local Time) from KSBO Reporting Station
Overcast Overcast  
Wind Chill: 12°   Ceiling: 4100
Heat Index: 12°   Visibility: 10mi
Dew Point: -1°   Wind: 16mph
Humidity: 41%   Direction: 290°WNW
Pressure: 29.76"   Gusts: 24mph
Location:  32.53°N, 82.59°W
Report Text: KSBO 261815Z AUTO 29014G21KT 10SM OVC041 12/M01 A2976 RMK AO2
Loading
Personal Weather Stations






























Interactive Weather Map New forecast layout! Learn more

10-Day Weather Forecast

Advertisements
Track Severe Weather on mobile